»·PEaware :: FFT772 KLAS-KDEN

FFT772 :: KLAS-KDEN

FLIGHT INFORMATION

Flight Status: Arrived
Operator:
Frontier Airlines
More flights by this operator :: More flights under this callsign
Pilot: Hayden Y. (1870)
Aircraft: AIRBUS A320
(A320)
More flights by this aircraft type
Origin: KLAS McCarran Intl
United States
Destination: KDEN Denver Intl
United States
More flights between these airports :: More routes between these airports
Route: STAAV8 STAAV TRALR NICLE BUMMP SSKII1
File this flight plan on PilotEdge
Remarks:
Altitude:
(Current/Filed)
37,000ft
Speed:
(Current/Filed)
435kts
Departed: 13-May-20 11:00 AM
Arrived: 13-May-20 12:25 PM
Distance/Time
Traveled:
545nm/1:25
Distance/Time
To Go:
Arrived

Flight Plot

Page will automatically refresh every two minutes.


Map Options




Map Legend


Flown Route
Filed Route
Departure Airport
Arrival Airport
Navaid (VOR, NDB)
Fix

Horizontal Profiles

Position Reports

Time Latitude Longitude Heading Altitude Ground
Speed
13-May-20 10:22 36.081528 -115.135764 221 2129ft 0kts
13-May-20 10:23 36.081528 -115.135764 221 2129ft 0kts
13-May-20 10:24 36.081528 -115.135764 221 2129ft 0kts
13-May-20 10:25 36.081528 -115.135764 221 2129ft 0kts
13-May-20 10:26 36.081528 -115.135764 221 2129ft 0kts
13-May-20 10:26 36.081528 -115.135764 221 2129ft 0kts
13-May-20 10:27 36.081528 -115.135764 221 2129ft 0kts
13-May-20 10:33 36.081528 -115.135764 221 2129ft 0kts
13-May-20 10:34 36.081528 -115.135764 221 2129ft 0kts
13-May-20 10:35 36.081528 -115.135764 221 2129ft 0kts
13-May-20 10:36 36.081528 -115.135764 221 2129ft 0kts
13-May-20 10:37 36.081528 -115.135764 221 2129ft 0kts
13-May-20 10:38 36.081528 -115.135764 221 2129ft 0kts
13-May-20 10:39 36.081528 -115.135764 221 2129ft 0kts
13-May-20 10:40 36.081528 -115.135764 221 2129ft 0kts
13-May-20 10:41 36.081528 -115.135764 221 2129ft 0kts
13-May-20 10:42 36.081528 -115.135764 221 2129ft 0kts
13-May-20 10:43 36.081528 -115.135764 221 2129ft 0kts
13-May-20 10:44 36.081528 -115.135764 221 2129ft 0kts
13-May-20 10:45 36.081528 -115.135764 221 2129ft 0kts
13-May-20 10:46 36.081528 -115.135764 221 2129ft 0kts
13-May-20 10:47 36.081528 -115.135764 221 2129ft 0kts
13-May-20 10:48 36.081528 -115.135764 221 2129ft 0kts
13-May-20 10:49 36.082078 -115.135454 136 2129ft 2kts
13-May-20 10:50 36.082225 -115.135651 131 2129ft 0kts
13-May-20 10:51 36.082225 -115.135651 131 2129ft 0kts
13-May-20 10:52 36.081596 -115.134753 130 2129ft 12kts
13-May-20 10:53 36.078420 -115.133737 167 2129ft 12kts
13-May-20 10:54 36.078239 -115.129967 92 2129ft 11kts
13-May-20 10:55 36.078244 -115.125898 89 2129ft 12kts
13-May-20 10:56 36.077532 -115.121967 95 2129ft 11kts
13-May-20 10:57 36.077128 -115.121277 185 2129ft 0kts
13-May-20 10:58 36.076333 -115.122044 267 2129ft 9kts
13-May-20 10:59 36.076311 -115.155216 269 2491ft 186kts
13-May-20 11:00 36.076244 -115.220433 269 4883ft 205kts
13-May-20 11:01 36.096591 -115.289667 341 6824ft 246kts
13-May-20 11:02 36.162155 -115.279605 47 9512ft 257kts
13-May-20 11:03 36.193400 -115.192677 73 11181ft 311kts
13-May-20 11:04 36.197505 -115.074407 91 12468ft 372kts
13-May-20 11:05 36.198757 -114.942421 89 14670ft 393kts
13-May-20 11:06 36.200030 -114.804433 90 16729ft 411kts
13-May-20 11:07 36.198967 -114.659527 91 18729ft 425kts
13-May-20 11:08 36.197188 -114.510917 91 19017ft 432kts
13-May-20 11:09 36.195249 -114.361254 92 19903ft 437kts
13-May-20 11:10 36.197172 -114.209162 83 21572ft 449kts
13-May-20 11:11 36.216719 -114.054216 81 23157ft 458kts
13-May-20 11:12 36.234834 -113.897117 81 24554ft 467kts
13-May-20 11:13 36.253825 -113.735839 82 25763ft 477kts
13-May-20 11:14 36.272741 -113.571432 82 26863ft 487kts
13-May-20 11:15 36.291873 -113.403670 82 27879ft 496kts
13-May-20 11:16 36.312680 -113.233299 73 28826ft 503kts
13-May-20 11:17 36.376677 -113.079541 57 29691ft 507kts
13-May-20 11:18 36.444745 -112.924709 59 30507ft 514kts
13-May-20 11:19 36.513533 -112.769529 59 31578ft 512kts
13-May-20 11:20 36.581446 -112.613938 59 32545ft 511kts
13-May-20 11:21 36.649309 -112.458568 59 33425ft 510kts
13-May-20 11:22 36.716857 -112.303036 59 34246ft 509kts
13-May-20 11:23 36.784114 -112.147376 59 34974ft 508kts
13-May-20 11:24 36.850838 -111.992166 59 35524ft 508kts
13-May-20 11:25 36.917222 -111.837003 59 36110ft 506kts
13-May-20 11:26 36.983595 -111.681259 60 36513ft 506kts
13-May-20 11:27 37.049282 -111.526293 60 36859ft 506kts
13-May-20 11:28 37.115247 -111.369905 60 36969ft 504kts
13-May-20 11:29 37.180569 -111.214487 60 36980ft 505kts
13-May-20 11:30 37.245773 -111.058333 60 36954ft 503kts
13-May-20 11:31 37.310266 -110.903184 60 36958ft 503kts
13-May-20 11:32 37.375071 -110.746536 60 36976ft 503kts
13-May-20 11:33 37.439397 -110.590324 61 37014ft 504kts
13-May-20 11:34 37.503496 -110.433689 61 37087ft 503kts
13-May-20 11:35 37.567707 -110.276449 61 37043ft 504kts
13-May-20 11:36 37.631652 -110.118495 61 37004ft 506kts
13-May-20 11:37 37.695404 -109.960597 62 37053ft 505kts
13-May-20 11:38 37.758626 -109.803196 62 37113ft 504kts
13-May-20 11:39 37.822198 -109.644020 62 37110ft 505kts
13-May-20 11:40 37.885291 -109.485307 62 37109ft 504kts
13-May-20 11:41 37.947894 -109.326956 62 37097ft 501kts
13-May-20 11:42 38.010115 -109.169041 62 37046ft 500kts
13-May-20 11:43 38.071920 -109.011101 62 36971ft 501kts
13-May-20 11:44 38.133910 -108.852635 62 37032ft 500kts
13-May-20 11:45 38.196094 -108.694540 62 37085ft 498kts
13-May-20 11:46 38.257553 -108.537274 62 37065ft 496kts
13-May-20 11:47 38.318791 -108.379549 62 36994ft 495kts
13-May-20 11:48 38.379558 -108.222369 63 37007ft 494kts
13-May-20 11:49 38.440153 -108.064860 63 37021ft 494kts
13-May-20 11:50 38.500219 -107.906930 63 37037ft 494kts
13-May-20 11:51 38.559433 -107.749643 63 36990ft 490kts
13-May-20 11:52 38.617930 -107.593375 63 36983ft 488kts
13-May-20 11:53 38.677137 -107.435221 63 37020ft 496kts
13-May-20 11:54 38.737386 -107.276822 63 37044ft 495kts
13-May-20 11:55 38.796914 -107.117792 63 37089ft 494kts
13-May-20 11:56 38.856600 -106.958552 64 37107ft 495kts
13-May-20 11:57 38.915857 -106.799146 64 37115ft 493kts
13-May-20 11:58 38.974648 -106.640415 64 37062ft 492kts
13-May-20 11:59 39.032870 -106.482066 64 36352ft 483kts
13-May-20 12:01 39.091641 -106.320917 64 32223ft 511kts
13-May-20 12:02 39.150237 -106.159418 64 30454ft 487kts
13-May-20 12:03 39.206925 -106.002507 64 28163ft 478kts
13-May-20 12:04 39.262020 -105.849186 64 25936ft 467kts
13-May-20 12:05 39.315728 -105.699032 64 23694ft 457kts
13-May-20 12:06 39.369000 -105.552416 63 21545ft 442kts
13-May-20 12:07 39.420692 -105.413520 56 20111ft 407kts
13-May-20 12:08 39.482428 -105.300756 52 19109ft 373kts
13-May-20 12:09 39.535053 -105.203241 53 17668ft 366kts
13-May-20 12:10 39.592313 -105.097213 53 16234ft 354kts
13-May-20 12:11 39.648109 -104.993518 53 14793ft 345kts
13-May-20 12:12 39.701793 -104.893261 53 13516ft 331kts
13-May-20 12:13 39.771424 -104.836875 353 12394ft 296kts
13-May-20 12:14 39.853090 -104.840066 358 11329ft 280kts
13-May-20 12:15 39.925765 -104.838995 356 10971ft 251kts
13-May-20 12:16 39.995233 -104.838131 357 10157ft 247kts
13-May-20 12:17 40.063187 -104.837251 357 9145ft 236kts
13-May-20 12:18 40.128773 -104.835495 8 8171ft 236kts
13-May-20 12:18 40.156561 -104.779993 104 7992ft 246kts
13-May-20 12:19 40.110029 -104.720728 147 8004ft 237kts
13-May-20 12:21 40.041935 -104.684890 184 8056ft 209kts
13-May-20 12:21 39.996670 -104.685708 182 7282ft 178kts
13-May-20 12:22 39.950343 -104.686253 179 6402ft 168kts
13-May-20 12:23 39.904081 -104.686785 179 5513ft 164kts
13-May-20 12:24 39.874948 -104.686876 188 5339ft 40kts
13-May-20 12:25 39.870042 -104.683761 182 5339ft 11kts
13-May-20 12:26 39.866199 -104.683832 180 5339ft 13kts
13-May-20 12:27 39.862241 -104.683790 181 5339ft 14kts
13-May-20 12:28 39.861363 -104.678764 90 5339ft 22kts
13-May-20 12:29 39.861627 -104.671442 349 5339ft 9kts
13-May-20 12:30 39.862556 -104.671456 359 5339ft 0kts
13-May-20 12:31 39.862556 -104.671456 359 5339ft 0kts

Navigation Log

Ident Type
Flight plan parsing failed, navigation log unavailable